Terminal Aerodrome Forecast
Issued by NWS

Home | Current Version | Previous Version | Text Only | Print | Product List | Glossary On
Versions: 1 2 3 4 5 6 7 8 9 10 11 12 13 14 15 16 17 18 19 20 21 22 23 24 25 26 27 28
000
FTUS43 KLOT 232059 AAA
TAFMDW
TAF AMD
KMDW 232059Z 2321/2418 32011KT P6SM SCT070
     FM232115 03010KT P6SM SCT060
     FM240400 VRB03KT P6SM SCT050 SCT250
     FM241200 01005KT P6SM VCSH SCT050 BKN100=

USA.gov is the U.S. government's official web portal to all federal, state and local government web resources and services.